sensor_id;sensor_type;location;lat;lon;timestamp;P1;durP1;ratioP1;P2;durP2;ratioP2
21120;SDS011;12519;43.318;21.898;2023-07-02T00:01:41;9.0;;;6.0;;
21120;SDS011;12519;43.318;21.898;2023-07-02T00:06:18;8.0;;;6.0;;
21120;SDS011;12519;43.318;21.898;2023-07-02T00:10:54;8.0;;;6.0;;
21120;SDS011;12519;43.318;21.898;2023-07-02T00:15:31;8.0;;;6.0;;
21120;SDS011;12519;43.318;21.898;2023-07-02T00:20:09;7.0;;;6.0;;
21120;SDS011;12519;43.318;21.898;2023-07-02T00:24:47;7.0;;;6.0;;
21120;SDS011;12519;43.318;21.898;2023-07-02T00:29:25;6.0;;;6.0;;
21120;SDS011;12519;43.318;21.898;2023-07-02T00:34:03;6.0;;;6.0;;
21120;SDS011;12519;43.318;21.898;2023-07-02T00:38:41;6.0;;;5.0;;
21120;SDS011;12519;43.318;21.898;2023-07-02T00:43:24;6.0;;;5.0;;
21120;SDS011;12519;43.318;21.898;2023-07-02T00:48:01;6.0;;;6.0;;
21120;SDS011;12519;43.318;21.898;2023-07-02T00:52:39;6.0;;;6.0;;
21120;SDS011;12519;43.318;21.898;2023-07-02T00:57:16;6.0;;;6.0;;
21120;SDS011;12519;43.318;21.898;2023-07-02T01:01:53;6.0;;;6.0;;
21120;SDS011;12519;43.318;21.898;2023-07-02T01:06:33;6.0;;;6.0;;
21120;SDS011;12519;43.318;21.898;2023-07-02T01:11:14;6.0;;;6.0;;
21120;SDS011;12519;43.318;21.898;2023-07-02T01:15:51;6.0;;;6.0;;
21120;SDS011;12519;43.318;21.898;2023-07-02T01:20:31;6.0;;;6.0;;
21120;SDS011;12519;43.318;21.898;2023-07-02T01:25:14;6.0;;;6.0;;
21120;SDS011;12519;43.318;21.898;2023-07-02T01:29:53;6.0;;;6.0;;
21120;SDS011;12519;43.318;21.898;2023-07-02T01:34:32;6.0;;;6.0;;
21120;SDS011;12519;43.318;21.898;2023-07-02T01:39:08;6.0;;;6.0;;
21120;SDS011;12519;43.318;21.898;2023-07-02T01:43:45;6.0;;;6.0;;
21120;SDS011;12519;43.318;21.898;2023-07-02T01:48:21;6.0;;;6.0;;
21120;SDS011;12519;43.318;21.898;2023-07-02T01:52:58;6.0;;;6.0;;
21120;SDS011;12519;43.318;21.898;2023-07-02T01:57:35;7.0;;;6.0;;
21120;SDS011;12519;43.318;21.898;2023-07-02T02:02:11;7.0;;;6.0;;
21120;SDS011;12519;43.318;21.898;2023-07-02T02:06:48;8.0;;;6.0;;
21120;SDS011;12519;43.318;21.898;2023-07-02T02:11:25;8.0;;;6.0;;
21120;SDS011;12519;43.318;21.898;2023-07-02T02:16:02;8.0;;;6.0;;
21120;SDS011;12519;43.318;21.898;2023-07-02T02:20:40;8.0;;;6.0;;
21120;SDS011;12519;43.318;21.898;2023-07-02T02:25:17;8.0;;;6.0;;
21120;SDS011;12519;43.318;21.898;2023-07-02T02:29:54;7.0;;;6.0;;
21120;SDS011;12519;43.318;21.898;2023-07-02T02:34:30;7.0;;;6.0;;
21120;SDS011;12519;43.318;21.898;2023-07-02T02:39:07;6.0;;;5.0;;
21120;SDS011;12519;43.318;21.898;2023-07-02T02:43:43;6.0;;;5.0;;
21120;SDS011;12519;43.318;21.898;2023-07-02T02:48:20;7.0;;;6.0;;
21120;SDS011;12519;43.318;21.898;2023-07-02T02:52:56;7.0;;;6.0;;
21120;SDS011;12519;43.318;21.898;2023-07-02T02:57:33;8.0;;;7.0;;
21120;SDS011;12519;43.318;21.898;2023-07-02T03:02:09;8.0;;;7.0;;
21120;SDS011;12519;43.318;21.898;2023-07-02T03:06:46;7.0;;;6.0;;
21120;SDS011;12519;43.318;21.898;2023-07-02T03:11:22;7.0;;;6.0;;
21120;SDS011;12519;43.318;21.898;2023-07-02T03:15:59;7.0;;;6.0;;
21120;SDS011;12519;43.318;21.898;2023-07-02T03:20:36;6.0;;;5.0;;
21120;SDS011;12519;43.318;21.898;2023-07-02T03:25:15;6.0;;;5.0;;
21120;SDS011;12519;43.318;21.898;2023-07-02T03:29:52;7.0;;;6.0;;
21120;SDS011;12519;43.318;21.898;2023-07-02T03:34:30;7.0;;;6.0;;
21120;SDS011;12519;43.318;21.898;2023-07-02T03:39:07;8.0;;;6.0;;
21120;SDS011;12519;43.318;21.898;2023-07-02T03:43:43;8.0;;;6.0;;
21120;SDS011;12519;43.318;21.898;2023-07-02T03:48:20;10.0;;;7.0;;
21120;SDS011;12519;43.318;21.898;2023-07-02T03:52:57;10.0;;;7.0;;
21120;SDS011;12519;43.318;21.898;2023-07-02T03:57:33;11.0;;;8.0;;
21120;SDS011;12519;43.318;21.898;2023-07-02T04:02:10;11.0;;;8.0;;
21120;SDS011;12519;43.318;21.898;2023-07-02T04:06:46;11.0;;;10.0;;
21120;SDS011;12519;43.318;21.898;2023-07-02T04:11:22;11.0;;;10.0;;
21120;SDS011;12519;43.318;21.898;2023-07-02T04:15:59;11.0;;;10.0;;
21120;SDS011;12519;43.318;21.898;2023-07-02T04:20:35;11.0;;;11.0;;
21120;SDS011;12519;43.318;21.898;2023-07-02T04:25:13;11.0;;;11.0;;
21120;SDS011;12519;43.318;21.898;2023-07-02T04:29:53;10.0;;;10.0;;
21120;SDS011;12519;43.318;21.898;2023-07-02T04:34:30;10.0;;;10.0;;
21120;SDS011;12519;43.318;21.898;2023-07-02T04:39:08;10.0;;;8.0;;
21120;SDS011;12519;43.318;21.898;2023-07-02T04:43:44;10.0;;;8.0;;
21120;SDS011;12519;43.318;21.898;2023-07-02T04:48:21;8.0;;;8.0;;
21120;SDS011;12519;43.318;21.898;2023-07-02T04:52:58;8.0;;;8.0;;
21120;SDS011;12519;43.318;21.898;2023-07-02T04:57:34;7.0;;;7.0;;
21120;SDS011;12519;43.318;21.898;2023-07-02T05:02:11;7.0;;;7.0;;
21120;SDS011;12519;43.318;21.898;2023-07-02T05:06:48;8.0;;;7.0;;
21120;SDS011;12519;43.318;21.898;2023-07-02T05:11:24;8.0;;;7.0;;
21120;SDS011;12519;43.318;21.898;2023-07-02T05:16:00;8.0;;;7.0;;
21120;SDS011;12519;43.318;21.898;2023-07-02T05:20:36;8.0;;;7.0;;
21120;SDS011;12519;43.318;21.898;2023-07-02T05:25:13;8.0;;;7.0;;
21120;SDS011;12519;43.318;21.898;2023-07-02T05:29:50;8.0;;;7.0;;
21120;SDS011;12519;43.318;21.898;2023-07-02T05:34:26;8.0;;;7.0;;
21120;SDS011;12519;43.318;21.898;2023-07-02T05:39:03;9.0;;;7.0;;
21120;SDS011;12519;43.318;21.898;2023-07-02T05:43:39;9.0;;;7.0;;
21120;SDS011;12519;43.318;21.898;2023-07-02T05:48:16;10.0;;;8.0;;
21120;SDS011;12519;43.318;21.898;2023-07-02T05:52:52;10.0;;;8.0;;
21120;SDS011;12519;43.318;21.898;2023-07-02T05:57:29;10.0;;;9.0;;
21120;SDS011;12519;43.318;21.898;2023-07-02T06:02:06;10.0;;;9.0;;
21120;SDS011;12519;43.318;21.898;2023-07-02T06:06:43;10.0;;;9.0;;
21120;SDS011;12519;43.318;21.898;2023-07-02T06:11:20;14.0;;;12.0;;
21120;SDS011;12519;43.318;21.898;2023-07-02T06:15:57;14.0;;;12.0;;
21120;SDS011;12519;43.318;21.898;2023-07-02T06:20:34;19.0;;;15.0;;
21120;SDS011;12519;43.318;21.898;2023-07-02T06:25:11;19.0;;;15.0;;
21120;SDS011;12519;43.318;21.898;2023-07-02T06:29:49;22.0;;;16.0;;
21120;SDS011;12519;43.318;21.898;2023-07-02T06:34:26;22.0;;;16.0;;
21120;SDS011;12519;43.318;21.898;2023-07-02T06:39:03;24.0;;;16.0;;
21120;SDS011;12519;43.318;21.898;2023-07-02T06:43:42;24.0;;;16.0;;
21120;SDS011;12519;43.318;21.898;2023-07-02T06:48:18;18.0;;;14.0;;
21120;SDS011;12519;43.318;21.898;2023-07-02T06:52:55;18.0;;;14.0;;
21120;SDS011;12519;43.318;21.898;2023-07-02T06:57:32;13.0;;;12.0;;
21120;SDS011;12519;43.318;21.898;2023-07-02T07:02:08;13.0;;;12.0;;
21120;SDS011;12519;43.318;21.898;2023-07-02T07:06:45;13.0;;;12.0;;
21120;SDS011;12519;43.318;21.898;2023-07-02T07:11:21;12.0;;;11.0;;
21120;SDS011;12519;43.318;21.898;2023-07-02T07:15:58;12.0;;;11.0;;
21120;SDS011;12519;43.318;21.898;2023-07-02T07:20:35;10.0;;;10.0;;
21120;SDS011;12519;43.318;21.898;2023-07-02T07:25:15;10.0;;;10.0;;
21120;SDS011;12519;43.318;21.898;2023-07-02T07:29:51;12.0;;;12.0;;
21120;SDS011;12519;43.318;21.898;2023-07-02T07:34:28;12.0;;;12.0;;
21120;SDS011;12519;43.318;21.898;2023-07-02T07:39:04;15.0;;;13.0;;
21120;SDS011;12519;43.318;21.898;2023-07-02T07:43:41;15.0;;;13.0;;
21120;SDS011;12519;43.318;21.898;2023-07-02T07:48:17;14.0;;;12.0;;
21120;SDS011;12519;43.318;21.898;2023-07-02T07:52:53;14.0;;;12.0;;
21120;SDS011;12519;43.318;21.898;2023-07-02T07:57:30;14.0;;;12.0;;
21120;SDS011;12519;43.318;21.898;2023-07-02T08:02:06;14.0;;;12.0;;
21120;SDS011;12519;43.318;21.898;2023-07-02T08:06:43;14.0;;;12.0;;
21120;SDS011;12519;43.318;21.898;2023-07-02T08:11:19;12.0;;;11.0;;
21120;SDS011;12519;43.318;21.898;2023-07-02T08:15:55;12.0;;;11.0;;
21120;SDS011;12519;43.318;21.898;2023-07-02T08:20:32;11.0;;;10.0;;
21120;SDS011;12519;43.318;21.898;2023-07-02T08:25:09;11.0;;;10.0;;
21120;SDS011;12519;43.318;21.898;2023-07-02T08:29:45;10.0;;;8.0;;
21120;SDS011;12519;43.318;21.898;2023-07-02T08:34:24;10.0;;;8.0;;
21120;SDS011;12519;43.318;21.898;2023-07-02T08:39:01;8.0;;;7.0;;
21120;SDS011;12519;43.318;21.898;2023-07-02T08:43:40;8.0;;;7.0;;
21120;SDS011;12519;43.318;21.898;2023-07-02T08:48:20;8.0;;;7.0;;
21120;SDS011;12519;43.318;21.898;2023-07-02T08:52:58;8.0;;;7.0;;
21120;SDS011;12519;43.318;21.898;2023-07-02T08:57:36;7.0;;;7.0;;
21120;SDS011;12519;43.318;21.898;2023-07-02T09:02:13;7.0;;;7.0;;
21120;SDS011;12519;43.318;21.898;2023-07-02T09:07:03;7.0;;;7.0;;
21120;SDS011;12519;43.318;21.898;2023-07-02T09:11:47;12.0;;;10.0;;
21120;SDS011;12519;43.318;21.898;2023-07-02T09:16:28;12.0;;;10.0;;
21120;SDS011;12519;43.318;21.898;2023-07-02T09:21:09;17.0;;;12.0;;
21120;SDS011;12519;43.318;21.898;2023-07-02T09:25:45;17.0;;;12.0;;
21120;SDS011;12519;43.318;21.898;2023-07-02T09:30:22;14.0;;;10.0;;
21120;SDS011;12519;43.318;21.898;2023-07-02T09:34:59;14.0;;;10.0;;
21120;SDS011;12519;43.318;21.898;2023-07-02T09:39:37;11.0;;;8.0;;
21120;SDS011;12519;43.318;21.898;2023-07-02T09:44:15;11.0;;;8.0;;
21120;SDS011;12519;43.318;21.898;2023-07-02T09:48:55;10.0;;;8.0;;
21120;SDS011;12519;43.318;21.898;2023-07-02T09:53:36;10.0;;;8.0;;
21120;SDS011;12519;43.318;21.898;2023-07-02T09:58:13;8.0;;;7.0;;
21120;SDS011;12519;43.318;21.898;2023-07-02T10:02:52;8.0;;;7.0;;
21120;SDS011;12519;43.318;21.898;2023-07-02T10:07:31;11.0;;;10.0;;
21120;SDS011;12519;43.318;21.898;2023-07-02T10:12:18;11.0;;;10.0;;
21120;SDS011;12519;43.318;21.898;2023-07-02T10:16:59;11.0;;;10.0;;
21120;SDS011;12519;43.318;21.898;2023-07-02T10:21:36;14.0;;;12.0;;
21120;SDS011;12519;43.318;21.898;2023-07-02T10:26:15;14.0;;;12.0;;
21120;SDS011;12519;43.318;21.898;2023-07-02T10:30:55;12.0;;;10.0;;
21120;SDS011;12519;43.318;21.898;2023-07-02T10:35:33;12.0;;;10.0;;
21120;SDS011;12519;43.318;21.898;2023-07-02T10:40:12;9.0;;;8.0;;
21120;SDS011;12519;43.318;21.898;2023-07-02T10:44:51;9.0;;;8.0;;
21120;SDS011;12519;43.318;21.898;2023-07-02T10:49:31;9.0;;;8.0;;
21120;SDS011;12519;43.318;21.898;2023-07-02T10:54:09;9.0;;;8.0;;
21120;SDS011;12519;43.318;21.898;2023-07-02T10:58:45;9.0;;;9.0;;
21120;SDS011;12519;43.318;21.898;2023-07-02T11:03:24;9.0;;;9.0;;
21120;SDS011;12519;43.318;21.898;2023-07-02T11:08:08;11.0;;;10.0;;
21120;SDS011;12519;43.318;21.898;2023-07-02T11:12:46;11.0;;;10.0;;
21120;SDS011;12519;43.318;21.898;2023-07-02T11:17:25;13.0;;;10.0;;
21120;SDS011;12519;43.318;21.898;2023-07-02T11:22:04;13.0;;;10.0;;
21120;SDS011;12519;43.318;21.898;2023-07-02T11:26:41;13.0;;;10.0;;
21120;SDS011;12519;43.318;21.898;2023-07-02T11:31:26;16.0;;;13.0;;
21120;SDS011;12519;43.318;21.898;2023-07-02T11:36:05;16.0;;;13.0;;
21120;SDS011;12519;43.318;21.898;2023-07-02T11:41:00;19.0;;;16.0;;
21120;SDS011;12519;43.318;21.898;2023-07-02T11:45:40;19.0;;;16.0;;
21120;SDS011;12519;43.318;21.898;2023-07-02T11:50:17;18.0;;;14.0;;
21120;SDS011;12519;43.318;21.898;2023-07-02T11:54:54;18.0;;;14.0;;
21120;SDS011;12519;43.318;21.898;2023-07-02T11:59:31;16.0;;;12.0;;
21120;SDS011;12519;43.318;21.898;2023-07-02T12:04:10;16.0;;;12.0;;
21120;SDS011;12519;43.318;21.898;2023-07-02T12:08:46;18.0;;;14.0;;
21120;SDS011;12519;43.318;21.898;2023-07-02T12:13:23;18.0;;;14.0;;
21120;SDS011;12519;43.318;21.898;2023-07-02T12:17:59;19.0;;;17.0;;
21120;SDS011;12519;43.318;21.898;2023-07-02T12:22:36;19.0;;;17.0;;
21120;SDS011;12519;43.318;21.898;2023-07-02T12:27:13;19.0;;;17.0;;
21120;SDS011;12519;43.318;21.898;2023-07-02T12:31:50;21.0;;;18.0;;
21120;SDS011;12519;43.318;21.898;2023-07-02T12:36:26;21.0;;;18.0;;
21120;SDS011;12519;43.318;21.898;2023-07-02T12:41:03;23.0;;;18.0;;
21120;SDS011;12519;43.318;21.898;2023-07-02T12:45:39;23.0;;;18.0;;
21120;SDS011;12519;43.318;21.898;2023-07-02T12:50:16;20.0;;;16.0;;
21120;SDS011;12519;43.318;21.898;2023-07-02T12:54:54;20.0;;;16.0;;
21120;SDS011;12519;43.318;21.898;2023-07-02T12:59:31;16.0;;;15.0;;
21120;SDS011;12519;43.318;21.898;2023-07-02T13:04:07;16.0;;;15.0;;
21120;SDS011;12519;43.318;21.898;2023-07-02T13:08:43;18.0;;;15.0;;
21120;SDS011;12519;43.318;21.898;2023-07-02T13:13:19;18.0;;;15.0;;
21120;SDS011;12519;43.318;21.898;2023-07-02T13:17:56;21.0;;;15.0;;
21120;SDS011;12519;43.318;21.898;2023-07-02T13:22:32;21.0;;;15.0;;
21120;SDS011;12519;43.318;21.898;2023-07-02T13:27:14;21.0;;;15.0;;
21120;SDS011;12519;43.318;21.898;2023-07-02T13:31:53;22.0;;;16.0;;
21120;SDS011;12519;43.318;21.898;2023-07-02T13:36:30;22.0;;;16.0;;
21120;SDS011;12519;43.318;21.898;2023-07-02T13:41:06;22.0;;;17.0;;
21120;SDS011;12519;43.318;21.898;2023-07-02T13:45:44;22.0;;;17.0;;
21120;SDS011;12519;43.318;21.898;2023-07-02T13:50:21;18.0;;;16.0;;
21120;SDS011;12519;43.318;21.898;2023-07-02T13:54:58;18.0;;;16.0;;
21120;SDS011;12519;43.318;21.898;2023-07-02T13:59:35;15.0;;;14.0;;
21120;SDS011;12519;43.318;21.898;2023-07-02T14:04:13;15.0;;;14.0;;
21120;SDS011;12519;43.318;21.898;2023-07-02T14:08:55;16.0;;;14.0;;
21120;SDS011;12519;43.318;21.898;2023-07-02T14:13:33;16.0;;;14.0;;
21120;SDS011;12519;43.318;21.898;2023-07-02T14:18:10;16.0;;;13.0;;
21120;SDS011;12519;43.318;21.898;2023-07-02T14:22:47;16.0;;;13.0;;
21120;SDS011;12519;43.318;21.898;2023-07-02T14:27:24;16.0;;;13.0;;
21120;SDS011;12519;43.318;21.898;2023-07-02T14:32:01;16.0;;;12.0;;
21120;SDS011;12519;43.318;21.898;2023-07-02T14:36:42;16.0;;;12.0;;
21120;SDS011;12519;43.318;21.898;2023-07-02T14:41:19;15.0;;;10.0;;
21120;SDS011;12519;43.318;21.898;2023-07-02T14:45:59;15.0;;;10.0;;
21120;SDS011;12519;43.318;21.898;2023-07-02T14:50:45;16.0;;;12.0;;
21120;SDS011;12519;43.318;21.898;2023-07-02T14:55:29;16.0;;;12.0;;
21120;SDS011;12519;43.318;21.898;2023-07-02T15:00:08;18.0;;;13.0;;
21120;SDS011;12519;43.318;21.898;2023-07-02T15:04:49;18.0;;;13.0;;
21120;SDS011;12519;43.318;21.898;2023-07-02T15:09:26;18.0;;;14.0;;
21120;SDS011;12519;43.318;21.898;2023-07-02T15:14:03;18.0;;;14.0;;
21120;SDS011;12519;43.318;21.898;2023-07-02T15:18:41;19.0;;;15.0;;
21120;SDS011;12519;43.318;21.898;2023-07-02T15:23:17;19.0;;;15.0;;
21120;SDS011;12519;43.318;21.898;2023-07-02T15:27:55;19.0;;;15.0;;
21120;SDS011;12519;43.318;21.898;2023-07-02T15:32:32;18.0;;;14.0;;
21120;SDS011;12519;43.318;21.898;2023-07-02T15:37:09;18.0;;;14.0;;
21120;SDS011;12519;43.318;21.898;2023-07-02T15:41:46;16.0;;;14.0;;
21120;SDS011;12519;43.318;21.898;2023-07-02T15:46:22;16.0;;;14.0;;
21120;SDS011;12519;43.318;21.898;2023-07-02T15:50:58;20.0;;;15.0;;
21120;SDS011;12519;43.318;21.898;2023-07-02T15:55:38;20.0;;;15.0;;
21120;SDS011;12519;43.318;21.898;2023-07-02T16:00:15;23.0;;;16.0;;
21120;SDS011;12519;43.318;21.898;2023-07-02T16:04:53;23.0;;;16.0;;
21120;SDS011;12519;43.318;21.898;2023-07-02T16:09:29;20.0;;;16.0;;
21120;SDS011;12519;43.318;21.898;2023-07-02T16:14:07;20.0;;;16.0;;
21120;SDS011;12519;43.318;21.898;2023-07-02T16:18:49;18.0;;;17.0;;
21120;SDS011;12519;43.318;21.898;2023-07-02T16:23:26;18.0;;;17.0;;
21120;SDS011;12519;43.318;21.898;2023-07-02T16:28:04;18.0;;;17.0;;
21120;SDS011;12519;43.318;21.898;2023-07-02T16:32:40;18.0;;;16.0;;
21120;SDS011;12519;43.318;21.898;2023-07-02T16:37:17;18.0;;;16.0;;
21120;SDS011;12519;43.318;21.898;2023-07-02T16:41:54;17.0;;;15.0;;
21120;SDS011;12519;43.318;21.898;2023-07-02T16:46:31;17.0;;;15.0;;
21120;SDS011;12519;43.318;21.898;2023-07-02T16:51:08;18.0;;;16.0;;
21120;SDS011;12519;43.318;21.898;2023-07-02T16:55:45;18.0;;;16.0;;
21120;SDS011;12519;43.318;21.898;2023-07-02T17:00:22;20.0;;;17.0;;
21120;SDS011;12519;43.318;21.898;2023-07-02T17:04:59;20.0;;;17.0;;
21120;SDS011;12519;43.318;21.898;2023-07-02T17:09:38;20.0;;;16.0;;
21120;SDS011;12519;43.318;21.898;2023-07-02T17:14:18;20.0;;;16.0;;
21120;SDS011;12519;43.318;21.898;2023-07-02T17:19:01;21.0;;;16.0;;
21120;SDS011;12519;43.318;21.898;2023-07-02T17:23:38;21.0;;;16.0;;
21120;SDS011;12519;43.318;21.898;2023-07-02T17:28:14;21.0;;;16.0;;
21120;SDS011;12519;43.318;21.898;2023-07-02T17:32:51;21.0;;;16.0;;
21120;SDS011;12519;43.318;21.898;2023-07-02T17:37:27;21.0;;;16.0;;
21120;SDS011;12519;43.318;21.898;2023-07-02T17:42:05;21.0;;;17.0;;
21120;SDS011;12519;43.318;21.898;2023-07-02T17:46:44;21.0;;;17.0;;
21120;SDS011;12519;43.318;21.898;2023-07-02T17:51:20;22.0;;;18.0;;
21120;SDS011;12519;43.318;21.898;2023-07-02T17:55:57;22.0;;;18.0;;
21120;SDS011;12519;43.318;21.898;2023-07-02T18:00:33;22.0;;;18.0;;
21120;SDS011;12519;43.318;21.898;2023-07-02T18:05:10;22.0;;;18.0;;
21120;SDS011;12519;43.318;21.898;2023-07-02T18:09:50;21.0;;;18.0;;
21120;SDS011;12519;43.318;21.898;2023-07-02T18:14:29;21.0;;;18.0;;
21120;SDS011;12519;43.318;21.898;2023-07-02T18:19:05;20.0;;;19.0;;
21120;SDS011;12519;43.318;21.898;2023-07-02T18:23:42;20.0;;;19.0;;
21120;SDS011;12519;43.318;21.898;2023-07-02T18:28:18;20.0;;;19.0;;
21120;SDS011;12519;43.318;21.898;2023-07-02T18:32:54;22.0;;;20.0;;
21120;SDS011;12519;43.318;21.898;2023-07-02T18:37:31;22.0;;;20.0;;
21120;SDS011;12519;43.318;21.898;2023-07-02T18:42:10;25.0;;;21.0;;
21120;SDS011;12519;43.318;21.898;2023-07-02T18:46:47;25.0;;;21.0;;
21120;SDS011;12519;43.318;21.898;2023-07-02T18:51:23;26.0;;;20.0;;
21120;SDS011;12519;43.318;21.898;2023-07-02T18:56:02;26.0;;;20.0;;
21120;SDS011;12519;43.318;21.898;2023-07-02T19:00:42;28.0;;;20.0;;
21120;SDS011;12519;43.318;21.898;2023-07-02T19:05:19;28.0;;;20.0;;
21120;SDS011;12519;43.318;21.898;2023-07-02T19:09:57;26.0;;;20.0;;
21120;SDS011;12519;43.318;21.898;2023-07-02T19:14:37;26.0;;;20.0;;
21120;SDS011;12519;43.318;21.898;2023-07-02T19:19:16;23.0;;;21.0;;
21120;SDS011;12519;43.318;21.898;2023-07-02T19:23:53;23.0;;;21.0;;
21120;SDS011;12519;43.318;21.898;2023-07-02T19:28:30;23.0;;;21.0;;
21120;SDS011;12519;43.318;21.898;2023-07-02T19:33:07;23.0;;;21.0;;
21120;SDS011;12519;43.318;21.898;2023-07-02T19:37:44;23.0;;;21.0;;
21120;SDS011;12519;43.318;21.898;2023-07-02T19:51:37;24.0;;;21.0;;
21120;SDS011;12519;43.318;21.898;2023-07-02T19:56:15;24.0;;;21.0;;
21120;SDS011;12519;43.318;21.898;2023-07-02T20:00:52;24.0;;;21.0;;
21120;SDS011;12519;43.318;21.898;2023-07-02T20:05:28;24.0;;;21.0;;
21120;SDS011;12519;43.318;21.898;2023-07-02T20:10:08;24.0;;;20.0;;
21120;SDS011;12519;43.318;21.898;2023-07-02T20:14:45;24.0;;;20.0;;
21120;SDS011;12519;43.318;21.898;2023-07-02T20:19:22;24.0;;;19.0;;
21120;SDS011;12519;43.318;21.898;2023-07-02T20:23:59;24.0;;;19.0;;
21120;SDS011;12519;43.318;21.898;2023-07-02T20:28:38;24.0;;;19.0;;
21120;SDS011;12519;43.318;21.898;2023-07-02T20:33:15;24.0;;;19.0;;
21120;SDS011;12519;43.318;21.898;2023-07-02T20:37:52;24.0;;;19.0;;
21120;SDS011;12519;43.318;21.898;2023-07-02T20:51:49;30.0;;;23.0;;
21120;SDS011;12519;43.318;21.898;2023-07-02T20:56:26;30.0;;;23.0;;
21120;SDS011;12519;43.318;21.898;2023-07-02T21:01:10;30.0;;;23.0;;
21120;SDS011;12519;43.318;21.898;2023-07-02T21:05:47;30.0;;;23.0;;
21120;SDS011;12519;43.318;21.898;2023-07-02T21:10:24;26.0;;;22.0;;
21120;SDS011;12519;43.318;21.898;2023-07-02T21:15:00;26.0;;;22.0;;
21120;SDS011;12519;43.318;21.898;2023-07-02T21:19:37;23.0;;;21.0;;
21120;SDS011;12519;43.318;21.898;2023-07-02T21:24:16;23.0;;;21.0;;
21120;SDS011;12519;43.318;21.898;2023-07-02T21:28:52;22.0;;;21.0;;
21120;SDS011;12519;43.318;21.898;2023-07-02T21:33:29;22.0;;;21.0;;
21120;SDS011;12519;43.318;21.898;2023-07-02T21:38:07;22.0;;;21.0;;
21120;SDS011;12519;43.318;21.898;2023-07-02T21:42:45;22.0;;;21.0;;
21120;SDS011;12519;43.318;21.898;2023-07-02T21:47:22;22.0;;;21.0;;
21120;SDS011;12519;43.318;21.898;2023-07-02T21:51:59;22.0;;;20.0;;
21120;SDS011;12519;43.318;21.898;2023-07-02T21:56:36;22.0;;;20.0;;
21120;SDS011;12519;43.318;21.898;2023-07-02T22:01:13;22.0;;;20.0;;
21120;SDS011;12519;43.318;21.898;2023-07-02T22:05:54;22.0;;;20.0;;
21120;SDS011;12519;43.318;21.898;2023-07-02T22:10:32;21.0;;;19.0;;
21120;SDS011;12519;43.318;21.898;2023-07-02T22:15:11;21.0;;;19.0;;
21120;SDS011;12519;43.318;21.898;2023-07-02T22:19:51;20.0;;;18.0;;
21120;SDS011;12519;43.318;21.898;2023-07-02T22:24:28;20.0;;;18.0;;
21120;SDS011;12519;43.318;21.898;2023-07-02T22:29:06;22.0;;;18.0;;
21120;SDS011;12519;43.318;21.898;2023-07-02T22:33:43;22.0;;;18.0;;
21120;SDS011;12519;43.318;21.898;2023-07-02T22:38:21;22.0;;;18.0;;
21120;SDS011;12519;43.318;21.898;2023-07-02T22:42:59;23.0;;;18.0;;
21120;SDS011;12519;43.318;21.898;2023-07-02T22:47:38;23.0;;;18.0;;
21120;SDS011;12519;43.318;21.898;2023-07-02T22:52:15;22.0;;;18.0;;
21120;SDS011;12519;43.318;21.898;2023-07-02T22:56:54;22.0;;;18.0;;
21120;SDS011;12519;43.318;21.898;2023-07-02T23:01:30;20.0;;;18.0;;
21120;SDS011;12519;43.318;21.898;2023-07-02T23:06:07;20.0;;;18.0;;
21120;SDS011;12519;43.318;21.898;2023-07-02T23:10:44;20.0;;;18.0;;
21120;SDS011;12519;43.318;21.898;2023-07-02T23:15:21;20.0;;;18.0;;
21120;SDS011;12519;43.318;21.898;2023-07-02T23:19:58;19.0;;;18.0;;
21120;SDS011;12519;43.318;21.898;2023-07-02T23:24:35;19.0;;;18.0;;
21120;SDS011;12519;43.318;21.898;2023-07-02T23:29:12;20.0;;;18.0;;
21120;SDS011;12519;43.318;21.898;2023-07-02T23:33:49;20.0;;;18.0;;
21120;SDS011;12519;43.318;21.898;2023-07-02T23:38:27;20.0;;;18.0;;
21120;SDS011;12519;43.318;21.898;2023-07-02T23:43:04;22.0;;;18.0;;
21120;SDS011;12519;43.318;21.898;2023-07-02T23:47:42;22.0;;;18.0;;
21120;SDS011;12519;43.318;21.898;2023-07-02T23:52:18;22.0;;;18.0;;
21120;SDS011;12519;43.318;21.898;2023-07-02T23:56:54;22.0;;;18.0;;
